Woodson, Illinois
Current Conditions -  °F | °C
As of 8:55 PM on Saturday 25 Oct 2014 (Local Time) from KIJX Reporting Station
Clear Clear  
Wind Chill: 58°   Ceiling: Unl
Heat Index: 58°   Visibility: 10mi
Dew Point: 46°   Wind: 3mph
Humidity: 66%   Direction: 330°NNW
Pressure: 30.03"   Gusts: NA
Location:  39.63°N, 90.22°W
Report Text: KIJX 260155Z AUTO 33003KT 10SM CLR 14/08 A3003 RMK AO2 T01430080
Loading
Personal Weather Stations






























Interactive Weather Map
Tropical Storm Tracking
New forecast layout! Learn more

10-Day Weather Forecast

Advertisements
Track Severe Weather on mobile